Decoded Metar for UKKK (KIEV in UKRAINE) (IATA:IEV) | Meteo·Mobile Aviation Weather
aviador You're here:

UKKK Decoded Metar

KIEV in UKRAINE
Report Time2018-12-15 01:00:00
UTC Time2018-12-15 01:14:24
Flight Rules lifr LIFR
Wind040° at 8 kt
W.Decomp.*RWY 08: 5.7 kt HW 5.7 kt LCW
W.Rank040° ranks 28
Current wind is above 040° avg. (7.4)
Visibility7000 m
Phenomena:N/A
Clouds:Overcast 004 Hf
Expected CloudBase > 400 ft AGL from Temp-Dew spread
Ceiling400 ft
Temp-1°C (ISA -15)
Dew Point-2°C (93% RH)
AAT-6.1°C
QNH1026 hPa
Density Alt-1,594 ft
Elevation587 ft
Report Wrong Elevation
Raw Report
UKKK 150100Z 04004MPS 7000 OVC004 M01/M02 Q1026 R08/590340 TEMPO
BKN003=

Extra information for UKKK:More info

Metar Taf Metar & Taf Last 4 Metars F.Rules Stats Wind Profile Meteogram Temp Stats Airport Information Weather charts Add Link Nearby VenuesMetar ALERT Operation Metar Decoded Social comments